Time;durP1;ratioP1;P1;durP2;ratioP2;P2;SDS_P1;SDS_P2;PMS_P1;PMS_P2;Temp;Humidity;BMP_temperature;BMP_pressure;BME280_temperature;BME280_humidity;BME280_pressure;Samples;Min_cycle;Max_cycle;Signal;HPM_P1;HPM_P2
2023/09/22 00:00:00;;;;;;;8.40;7.60;;;;;;;13.37;100.00;99836.19;5131136;27;20062;-36
2023/09/22 00:02:25;;;;;;;;;;;;;;;13.46;100.00;99850.00;5131359;27;20030;-36
2023/09/22 00:04:51;;;;;;;8.95;8.05;;;;;;;13.31;100.00;99842.69;5130510;27;19907;-36
2023/09/22 00:07:17;;;;;;;8.90;8.00;;;;;;;13.27;100.00;99843.50;5131069;27;20496;-36
2023/09/22 00:09:42;;;;;;;8.75;7.95;;;;;;;13.11;100.00;99815.53;5121014;27;20436;-36
2023/09/22 00:12:08;;;;;;;8.10;7.40;;;;;;;13.05;100.00;99817.44;5117027;28;20023;-36
2023/09/22 00:14:35;;;;;;;7.78;7.07;;;;;;;13.21;100.00;99841.84;5116888;28;20261;-36
2023/09/22 00:17:00;;;;;;;9.18;7.80;;;;;;;13.13;100.00;99844.03;5116433;28;20092;-37
2023/09/22 00:19:25;;;;;;;;;;;;;;;13.21;100.00;99847.28;5117289;28;20024;-36
2023/09/22 00:21:51;;;;;;;9.00;7.50;;;;;;;13.06;100.00;99840.78;5116815;28;19911;-36
2023/09/22 00:24:16;;;;;;;9.07;6.93;;;;;;;13.02;100.00;99845.09;5117269;28;20318;-36
2023/09/22 00:26:41;;;;;;;8.05;6.78;;;;;;;12.96;100.00;99829.91;5116725;28;20728;-36
2023/09/22 00:29:07;;;;;;;8.37;7.57;;;;;;;12.86;100.00;99829.91;5116706;28;20019;-36
2023/09/22 00:31:32;;;;;;;8.93;7.07;;;;;;;12.95;100.00;99838.34;5116961;28;20241;-36
2023/09/22 00:33:57;;;;;;;7.50;6.80;;;;;;;12.95;100.00;99843.75;5116640;28;20264;-36
2023/09/22 00:36:25;;;;;;;8.77;6.82;;;;;;;12.94;100.00;99847.56;5116523;28;20020;-36
2023/09/22 00:38:51;;;;;;;7.78;6.97;;;;;;;12.90;100.00;99850.00;5116435;28;20011;-36
2023/09/22 00:41:16;;;;;;;7.10;5.97;;;;;;;12.88;100.00;99860.28;5116081;28;20073;-36
2023/09/22 00:43:41;;;;;;;9.97;6.60;;;;;;;12.88;100.00;99854.88;5116781;28;20038;-36
2023/09/22 00:46:07;;;;;;;7.35;6.50;;;;;;;12.83;100.00;99861.13;5116040;28;20023;-36
2023/09/22 00:48:34;;;;;;;6.53;5.85;;;;;;;12.82;100.00;99861.38;5116601;28;20070;-36
2023/09/22 00:51:01;;;;;;;6.25;5.65;;;;;;;12.76;100.00;99851.63;5116227;28;20023;-36
2023/09/22 00:53:27;;;;;;;;;;;;;;;12.88;100.00;99860.28;5117503;28;20042;-36
2023/09/22 00:55:53;;;;;;;7.40;5.60;;;;;;;12.78;100.00;99849.44;5115829;28;20355;-36
2023/09/22 00:58:19;;;;;;;6.68;5.18;;;;;;;12.72;100.00;99836.97;5116206;28;20138;-36
2023/09/22 01:00:49;;;;;;;8.10;6.30;;;;;;;12.73;100.00;99841.28;5116097;28;20114;-36
2023/09/22 01:03:15;;;;;;;7.43;6.07;;;;;;;12.70;100.00;99831.00;5116000;28;20023;-36
2023/09/22 01:05:40;;;;;;;7.22;5.88;;;;;;;12.65;100.00;99822.84;5115904;28;20061;-36
2023/09/22 01:08:06;;;;;;;10.30;6.35;;;;;;;12.70;100.00;99833.72;5115980;28;20027;-36
2023/09/22 01:10:49;;;;;;;6.95;5.90;;;;;;;12.71;100.00;99836.16;5116364;28;20099;-36
2023/09/22 01:13:15;;;;;;;7.03;5.55;;;;;;;12.58;100.00;99848.31;5116386;28;20110;-36
2023/09/22 01:15:41;;;;;;;7.37;6.07;;;;;;;12.66;100.00;99865.16;5115735;28;20058;-36
2023/09/22 01:18:06;;;;;;;;;;;;;;;12.75;100.00;99858.13;5116654;27;20280;-36
2023/09/22 01:20:33;;;;;;;6.95;5.78;;;;;;;12.68;100.00;99841.28;5114984;28;19911;-36
2023/09/22 01:22:58;;;;;;;8.55;5.97;;;;;;;12.57;100.00;99843.97;5115865;28;20027;-36
2023/09/22 01:25:23;;;;;;;8.13;6.05;;;;;;;12.67;100.00;99853.22;5116339;28;20076;-36
2023/09/22 01:27:50;;;;;;;8.23;6.57;;;;;;;12.57;100.00;99854.84;5116064;28;20039;-36
2023/09/22 01:30:15;;;;;;;7.28;6.50;;;;;;;12.57;100.00;99857.53;5115736;28;20341;-36
2023/09/22 01:32:41;;;;;;;8.80;6.65;;;;;;;12.48;100.00;99840.16;5115739;28;20031;-36
2023/09/22 01:35:07;;;;;;;8.75;6.85;;;;;;;12.52;100.00;99841.25;5115622;28;20367;-36
2023/09/22 01:37:38;;;;;;;10.10;6.55;;;;;;;12.53;100.00;99834.75;5115189;28;20396;-36
2023/09/22 01:40:04;;;;;;;7.55;6.72;;;;;;;12.43;100.00;99832.03;5116134;28;20015;-36
2023/09/22 01:42:29;;;;;;;6.78;6.07;;;;;;;12.48;100.00;99832.03;5115850;28;20019;-36
2023/09/22 01:44:55;;;;;;;9.77;7.00;;;;;;;12.36;100.00;99826.06;5115436;28;20462;-36
2023/09/22 01:47:21;;;;;;;;;;;;;;;12.51;100.00;99833.41;5115539;28;20340;-36
2023/09/22 01:49:46;;;;;;;8.40;6.72;;;;;;;12.30;100.00;99829.84;5115047;28;19998;-36
2023/09/22 01:52:12;;;;;;;9.33;7.10;;;;;;;12.26;100.00;99823.31;5115162;28;20023;-36
2023/09/22 01:54:38;;;;;;;7.87;6.50;;;;;;;12.29;100.00;99833.59;5115015;28;20261;-36
2023/09/22 01:57:03;;;;;;;9.52;6.68;;;;;;;12.34;100.00;99839.03;5114867;28;20337;-36
2023/09/22 01:59:28;;;;;;;10.13;7.25;;;;;;;12.32;100.00;99842.03;5114406;28;20484;-36
2023/09/22 02:01:54;;;;;;;9.63;7.43;;;;;;;12.24;100.00;99847.97;5114951;28;20031;-36
2023/09/22 02:04:19;;;;;;;11.37;8.17;;;;;;;12.27;100.00;99852.03;5114869;28;20019;-36
2023/09/22 02:06:44;;;;;;;11.07;8.03;;;;;;;12.29;100.00;99847.97;5114792;28;20332;-36
2023/09/22 02:09:10;;;;;;;10.43;7.90;;;;;;;12.30;100.00;99838.78;5114785;28;20024;-36
2023/09/22 02:11:35;;;;;;;9.50;7.45;;;;;;;12.24;100.00;99839.00;5114028;28;20015;-36
2023/09/22 02:14:01;;;;;;;9.43;7.50;;;;;;;12.22;100.00;99824.94;5114686;28;20020;-36
2023/09/22 02:16:26;;;;;;;9.52;8.05;;;;;;;12.25;100.00;99841.47;5114306;28;20264;-36
2023/09/22 02:18:51;;;;;;;9.00;7.77;;;;;;;12.25;100.00;99835.22;5114451;28;20114;-36
2023/09/22 02:21:17;;;;;;;8.50;7.53;;;;;;;12.28;100.00;99840.13;5114839;28;20299;-36
2023/09/22 02:23:42;;;;;;;12.98;8.77;;;;;;;12.24;100.00;99845.25;5115013;28;20062;-36
2023/09/22 02:26:08;;;;;;;12.15;8.23;;;;;;;12.28;100.00;99840.13;5114481;28;20069;-36
2023/09/22 02:28:34;;;;;;;14.00;8.02;;;;;;;12.26;100.00;99845.81;5114145;28;20449;-36
2023/09/22 02:30:59;;;;;;;11.88;8.15;;;;;;;12.34;100.00;99841.75;5114412;28;20023;-36
2023/09/22 02:33:25;;;;;;;9.40;7.38;;;;;;;12.38;100.00;99856.41;5114973;28;20027;-36
2023/09/22 02:35:50;;;;;;;10.95;8.43;;;;;;;12.31;100.00;99842.31;5114245;28;20027;-36
2023/09/22 02:38:16;;;;;;;9.90;7.57;;;;;;;12.46;100.00;99855.91;5114766;28;20448;-36
2023/09/22 02:40:44;;;;;;;9.50;7.35;;;;;;;12.50;100.00;99846.16;5114481;28;20032;-36
2023/09/22 02:43:09;;;;;;;11.63;8.05;;;;;;;12.51;100.00;99850.47;5114204;28;20019;-36
2023/09/22 02:45:38;;;;;;;13.40;8.55;;;;;;;12.52;100.00;99840.44;5114190;28;20031;-36
2023/09/22 02:48:06;;;;;;;9.90;7.88;;;;;;;12.52;100.00;99830.41;5114147;28;20032;-36
2023/09/22 02:50:31;;;;;;;12.27;8.13;;;;;;;12.47;100.00;99843.16;5113825;28;20476;-36
2023/09/22 02:52:57;;;;;;;10.10;7.13;;;;;;;12.54;100.00;99839.13;5114234;28;20023;-36
2023/09/22 02:55:22;;;;;;;11.27;8.35;;;;;;;12.45;100.00;99850.75;5114099;28;20605;-36
2023/09/22 02:57:48;;;;;;;11.68;8.50;;;;;;;12.51;100.00;99845.06;5114435;28;20440;-36
2023/09/22 03:00:20;;;;;;;11.10;8.30;;;;;;;12.40;100.00;99838.00;5114565;28;20114;-36
2023/09/22 03:02:47;;;;;;;12.70;8.77;;;;;;;12.44;100.00;99843.69;5114228;28;20456;-36
2023/09/22 03:05:16;;;;;;;12.40;7.53;;;;;;;12.48;100.00;99848.28;5113902;28;20023;-36
2023/09/22 03:07:46;;;;;;;10.25;7.75;;;;;;;12.43;100.00;99832.03;5114329;28;20030;-36
2023/09/22 03:10:11;;;;;;;9.88;8.07;;;;;;;12.41;100.00;99836.91;5114727;28;20348;-36
2023/09/22 03:12:40;;;;;;;13.02;8.43;;;;;;;12.41;100.00;99833.38;5113963;28;20023;-36
2023/09/22 03:15:09;;;;;;;9.95;7.07;;;;;;;12.44;100.00;99838.25;5113935;28;20024;-36
2023/09/22 03:17:36;;;;;;;11.35;8.27;;;;;;;12.37;100.00;99836.63;5114115;28;20165;-36
2023/09/22 03:20:01;;;;;;;10.52;7.72;;;;;;;12.38;100.00;99838.25;5113516;28;20110;-36
2023/09/22 03:22:27;;;;;;;10.77;7.68;;;;;;;12.29;100.00;99834.41;5114402;28;20106;-36
2023/09/22 03:24:52;;;;;;;10.77;7.87;;;;;;;12.37;100.00;99838.53;5113909;28;20115;-36
2023/09/22 03:27:17;;;;;;;8.90;7.13;;;;;;;12.36;100.00;99845.03;5114356;28;20285;-36
2023/09/22 03:29:43;;;;;;;9.48;6.88;;;;;;;12.24;100.00;99828.97;5113830;28;20023;-36
2023/09/22 03:32:08;;;;;;;10.88;6.97;;;;;;;12.42;100.00;99849.38;5114097;28;20027;-36
2023/09/22 03:34:34;;;;;;;7.72;6.25;;;;;;;12.25;100.00;99818.94;5113734;28;20054;-36
2023/09/22 03:37:00;;;;;;;9.43;7.25;;;;;;;12.33;100.00;99838.22;5113352;28;20046;-36
2023/09/22 03:39:26;;;;;;;9.60;6.68;;;;;;;12.32;100.00;99843.94;5113394;28;20023;-36
2023/09/22 03:41:52;;;;;;;7.97;6.57;;;;;;;12.35;100.00;99838.78;5114544;28;20023;-36
2023/09/22 03:44:19;;;;;;;7.68;5.80;;;;;;;12.40;100.00;99848.84;5114956;28;20016;-41
2023/09/22 03:46:44;;;;;;;9.40;6.35;;;;;;;12.34;100.00;99849.88;5117480;28;20459;-36
2023/09/22 03:49:10;;;;;;;13.20;6.55;;;;;;;12.30;100.00;99838.78;5117449;28;20058;-36
2023/09/22 03:51:35;;;;;;;8.83;6.07;;;;;;;12.42;100.00;99849.38;5117486;28;20019;-43
2023/09/22 03:54:00;;;;;;;7.27;5.80;;;;;;;12.32;100.00;99835.78;5117910;27;20305;-36
2023/09/22 03:56:26;;;;;;;8.63;5.83;;;;;;;12.41;100.00;99845.03;5117683;28;20110;-36
2023/09/22 03:58:51;;;;;;;10.20;5.47;;;;;;;12.47;100.00;99854.00;5117297;28;20351;-36
2023/09/22 04:01:16;;;;;;;9.48;5.47;;;;;;;12.43;100.00;99850.19;5116904;28;20371;-36
2023/09/22 04:03:42;;;;;;;8.68;5.38;;;;;;;12.44;100.00;99852.63;5117772;28;20027;-36
2023/09/22 04:06:08;;;;;;;9.52;5.57;;;;;;;12.45;100.00;99848.03;5117665;28;20161;-36
2023/09/22 04:08:33;;;;;;;;;;;;;;;12.54;100.00;99860.81;5117207;28;20164;-36
2023/09/22 04:11:01;;;;;;;6.70;4.30;;;;;;;12.46;100.00;99853.19;5116997;28;19908;-35
2023/09/22 04:13:27;;;;;;;6.32;4.55;;;;;;;12.43;100.00;99853.72;5116697;28;20261;-35
2023/09/22 04:15:59;;;;;;;5.60;3.90;;;;;;;12.43;100.00;99856.41;5117184;28;20031;-35
2023/09/22 04:18:29;;;;;;;7.05;4.10;;;;;;;12.44;100.00;99860.75;5116618;28;20387;-36
2023/09/22 04:20:57;;;;;;;7.90;4.45;;;;;;;12.46;100.00;99869.44;5117060;27;20027;-35
2023/09/22 04:23:25;;;;;;;5.65;3.47;;;;;;;12.43;100.00;99867.25;5117102;28;20047;-35
2023/09/22 04:25:54;;;;;;;6.38;3.70;;;;;;;12.42;100.00;99862.94;5116777;28;20418;-35
2023/09/22 04:28:25;;;;;;;8.27;4.40;;;;;;;12.38;100.00;99856.41;5117020;28;20106;-36
2023/09/22 04:30:51;;;;;;;6.63;3.45;;;;;;;12.42;100.00;99862.13;5116997;28;20511;-36
2023/09/22 04:33:17;;;;;;;7.03;3.75;;;;;;;12.35;100.00;99862.38;5116335;28;20107;-36
2023/09/22 04:35:43;;;;;;;;;;;;;;;12.46;100.00;99874.06;5116663;28;20024;-36
2023/09/22 04:38:11;;;;;;;5.55;3.22;;;;;;;12.36;100.00;99869.44;5116798;28;19915;-36
2023/09/22 04:40:38;;;;;;;6.32;3.33;;;;;;;12.29;100.00;99852.59;5116536;28;20051;-36
2023/09/22 04:43:11;;;;;;;4.05;2.65;;;;;;;12.40;100.00;99875.94;5116758;28;20019;-36
2023/09/22 04:45:41;;;;;;;5.57;3.10;;;;;;;12.39;100.00;99871.59;5116931;28;20032;-36
2023/09/22 04:48:07;;;;;;;5.30;2.92;;;;;;;12.29;100.00;99852.59;5116725;28;20023;-36
2023/09/22 04:50:33;;;;;;;3.85;2.88;;;;;;;12.37;100.00;99874.56;5116242;28;20051;-36
2023/09/22 04:52:58;;;;;;;6.32;2.90;;;;;;;12.35;100.00;99865.09;5116516;28;20074;-36
2023/09/22 04:55:24;;;;;;;4.88;2.30;;;;;;;12.31;100.00;99867.50;5116382;28;20439;-36
2023/09/22 04:57:49;;;;;;;4.80;2.80;;;;;;;12.39;100.00;99877.00;5116743;28;20127;-36
2023/09/22 05:00:21;;;;;;;5.73;2.70;;;;;;;12.34;100.00;99868.84;5115823;28;20375;-36
2023/09/22 05:02:47;;;;;;;5.10;2.80;;;;;;;12.25;100.00;99859.59;5116866;28;20022;-36
2023/09/22 05:05:12;;;;;;;6.93;3.03;;;;;;;12.32;100.00;99868.31;5115794;28;20375;-36
2023/09/22 05:07:38;;;;;;;4.53;2.53;;;;;;;12.31;100.00;99877.53;5115958;28;20020;-36
2023/09/22 05:10:05;;;;;;;3.85;2.22;;;;;;;12.31;100.00;99877.53;5115897;28;20352;-36
2023/09/22 05:12:31;;;;;;;;;;;;;;;12.34;100.00;99883.22;5116871;28;20051;-36
2023/09/22 05:14:58;;;;;;;5.65;2.60;;;;;;;12.27;100.00;99887.28;5115784;28;19907;-36
2023/09/22 05:17:24;;;;;;;6.25;2.63;;;;;;;12.24;100.00;99882.38;5115891;28;20160;-36
2023/09/22 05:19:50;;;;;;;5.85;2.70;;;;;;;12.22;100.00;99885.38;5115896;28;20349;-36
2023/09/22 05:22:15;;;;;;;5.95;2.78;;;;;;;12.27;100.00;99898.13;5115644;28;20023;-36
2023/09/22 05:24:41;;;;;;;6.35;2.50;;;;;;;12.25;100.00;99897.56;5115546;28;20020;-36
2023/09/22 05:27:07;;;;;;;4.73;2.80;;;;;;;12.17;100.00;99885.34;5115884;28;20031;-36
2023/09/22 05:29:32;;;;;;;5.75;2.85;;;;;;;12.19;100.00;99901.34;5115763;28;20351;-36
2023/09/22 05:31:58;;;;;;;4.00;2.63;;;;;;;12.19;100.00;99902.16;5115766;28;20042;-36
2023/09/22 05:34:23;;;;;;;5.57;2.77;;;;;;;12.18;100.00;99905.13;5115672;28;20359;-36
2023/09/22 05:36:49;;;;;;;4.63;2.80;;;;;;;12.14;100.00;99898.59;5115090;28;20740;-36
2023/09/22 05:39:15;;;;;;;7.20;2.67;;;;;;;12.13;100.00;99915.94;5115286;27;20027;-36
2023/09/22 05:41:41;;;;;;;6.03;2.88;;;;;;;12.13;100.00;99915.94;5115034;28;20020;-36
2023/09/22 05:44:07;;;;;;;4.38;2.70;;;;;;;12.11;100.00;99911.63;5114941;27;20102;-36
2023/09/22 05:46:33;;;;;;;5.25;2.78;;;;;;;12.05;100.00;99907.25;5115739;28;20345;-36
2023/09/22 05:48:58;;;;;;;5.93;2.80;;;;;;;12.11;100.00;99927.06;5115733;28;20034;-36
2023/09/22 05:51:23;;;;;;;6.00;2.67;;;;;;;12.09;100.00;99943.56;5115324;28;20015;-36
2023/09/22 05:53:51;;;;;;;5.00;2.35;;;;;;;12.15;100.00;99944.44;5115071;27;20283;-36
2023/09/22 05:56:16;;;;;;;4.97;2.75;;;;;;;12.22;100.00;99938.75;5115254;28;20107;-36
2023/09/22 05:58:41;;;;;;;7.85;2.90;;;;;;;12.23;100.00;99934.97;5115417;28;20515;-36
2023/09/22 06:01:11;;;;;;;6.60;2.33;;;;;;;12.27;100.00;99942.31;5114622;28;20448;-36
2023/09/22 06:03:38;;;;;;;6.28;2.60;;;;;;;12.20;100.00;99930.06;5115451;27;20390;-36
2023/09/22 06:06:08;;;;;;;6.55;2.35;;;;;;;12.34;100.00;99937.44;5115233;28;20020;-36
2023/09/22 06:08:39;;;;;;;8.65;2.55;;;;;;;12.28;100.00;99938.50;5114134;28;20028;-36
2023/09/22 06:11:05;;;;;;;4.80;2.50;;;;;;;12.31;100.00;99953.44;5114429;28;20110;-36
2023/09/22 06:13:30;;;;;;;3.80;2.47;;;;;;;12.33;100.00;99954.78;5114430;28;20111;-36
2023/09/22 06:15:56;;;;;;;3.97;2.25;;;;;;;12.36;100.00;99950.75;5114468;28;20027;-36
2023/09/22 06:18:22;;;;;;;4.43;2.35;;;;;;;12.34;100.00;99947.47;5115147;28;20028;-36
2023/09/22 06:20:47;;;;;;;;;;;;;;;12.44;100.00;99958.38;5114972;28;20031;-36
2023/09/22 06:23:13;;;;;;;6.53;2.50;;;;;;;12.32;100.00;99945.03;5115428;28;20228;-36
2023/09/22 06:25:38;;;;;;;5.33;2.30;;;;;;;12.44;100.00;99958.38;5114264;28;20102;-37
2023/09/22 06:28:05;;;;;;;5.60;2.40;;;;;;;12.43;100.00;99959.44;5114480;28;20285;-36
2023/09/22 06:30:34;;;;;;;3.33;2.00;;;;;;;12.43;100.00;99950.50;5114396;28;20030;-36
2023/09/22 06:33:00;;;;;;;4.22;2.03;;;;;;;12.55;100.00;99970.91;5115264;28;20088;-36
2023/09/22 06:35:26;;;;;;;6.45;2.70;;;;;;;12.54;100.00;99968.44;5114034;28;20443;-36
2023/09/22 06:37:51;;;;;;;3.30;1.98;;;;;;;12.56;100.00;99967.09;5114864;28;20023;-37
2023/09/22 06:40:17;;;;;;;5.43;2.25;;;;;;;12.59;100.00;99966.59;5114308;28;20047;-36
2023/09/22 06:42:44;;;;;;;;;;;;;;;12.69;100.00;99968.53;5114695;28;20019;-36
2023/09/22 06:45:11;;;;;;;2.65;2.08;;;;;;;12.67;100.00;99962.53;5114199;28;19957;-36
2023/09/22 06:47:43;;;;;;;5.07;2.05;;;;;;;12.72;100.00;99967.97;5114664;28;20364;-36
2023/09/22 06:50:11;;;;;;;4.85;2.28;;;;;;;12.70;100.00;99961.19;5114205;28;20020;-37
2023/09/22 06:52:37;;;;;;;4.45;1.80;;;;;;;12.69;100.00;99959.53;5114444;28;20098;-37
2023/09/22 06:55:04;;;;;;;3.30;1.75;;;;;;;12.81;100.00;99979.94;5114106;28;20035;-36
2023/09/22 06:57:32;;;;;;;4.75;1.88;;;;;;;12.85;100.00;99974.81;5114013;28;20044;-37
2023/09/22 06:59:57;;;;;;;3.58;2.10;;;;;;;12.89;100.00;99987.56;5114071;28;20114;-36
2023/09/22 07:02:23;;;;;;;3.72;1.85;;;;;;;12.98;100.00;99984.31;5114654;28;20104;-36
2023/09/22 07:04:48;;;;;;;6.13;2.00;;;;;;;12.95;100.00;99974.84;5114030;28;20039;-36
2023/09/22 07:07:14;;;;;;;2.53;1.70;;;;;;;13.02;100.00;99980.00;5114870;28;20582;-37
2023/09/22 07:09:43;;;;;;;4.23;1.77;;;;;;;13.12;100.00;99982.72;5114533;28;20126;-36
2023/09/22 07:12:08;;;;;;;2.50;1.52;;;;;;;13.19;100.00;99996.06;5114855;28;20640;-34
2023/09/22 07:14:34;;;;;;;4.35;1.50;;;;;;;13.20;100.00;100000.41;5113864;28;20048;-35
2023/09/22 07:17:00;;;;;;;3.35;1.50;;;;;;;13.28;100.00;99992.56;5114430;28;20073;-37
2023/09/22 07:19:25;;;;;;;;;;;;;;;13.37;100.00;100001.81;5115618;28;20034;-37
2023/09/22 07:21:51;;;;;;;5.72;1.20;;;;;;;13.31;100.00;100007.50;5118038;28;19911;-35
2023/09/22 07:24:16;;;;;;;;;;;;;;;13.39;100.00;100004.25;5118959;28;20042;-36
2023/09/22 07:26:42;;;;;;;2.00;1.02;;;;;;;13.30;100.00;99992.28;5118755;28;20274;-35
2023/09/22 07:29:07;;;;;;;2.88;1.10;;;;;;;13.42;100.00;100008.31;5117896;28;20015;-35
2023/09/22 07:31:32;;;;;;;6.03;1.48;;;;;;;13.44;100.00;100009.69;5117685;28;20019;-35
2023/09/22 07:33:58;;;;;;;2.70;1.00;;;;;;;13.45;100.00;100010.50;5118112;28;20025;-35
2023/09/22 07:36:24;;;;;;;3.33;1.27;;;;;;;13.50;100.00;100027.63;5117776;28;20019;-35
2023/09/22 07:38:51;;;;;;;3.55;1.08;;;;;;;13.54;100.00;100026.00;5117964;28;20058;-36
2023/09/22 07:41:17;;;;;;;3.03;1.13;;;;;;;13.61;100.00;100031.16;5117658;28;20059;-35
2023/09/22 07:43:42;;;;;;;4.20;1.20;;;;;;;13.71;100.00;100038.50;5117374;28;20028;-36
2023/09/22 07:46:07;;;;;;;;;;;;;;;13.79;100.00;100051.56;5117976;28;20047;-35
2023/09/22 07:48:34;;;;;;;3.23;1.17;;;;;;;13.78;100.00;100045.31;5117791;28;20271;-35
2023/09/22 07:51:03;;;;;;;1.95;0.85;;;;;;;13.83;100.00;100049.94;5117369;28;20262;-36
2023/09/22 07:53:28;;;;;;;3.83;1.00;;;;;;;13.86;100.00;100052.91;5117395;28;20024;-36
2023/09/22 07:55:55;;;;;;;3.05;0.90;;;;;;;13.93;100.00;100059.97;5118202;28;20023;-35
2023/09/22 07:58:24;;;;;;;2.03;1.00;;;;;;;13.90;100.00;100039.59;5117060;28;20054;-35
2023/09/22 08:00:50;;;;;;;3.13;1.30;;;;;;;13.89;100.00;100052.34;5118022;28;20035;-36
2023/09/22 08:03:18;;;;;;;4.35;1.30;;;;;;;14.05;100.00;100066.75;5117505;28;20023;-36
2023/09/22 08:05:44;;;;;;;2.40;1.23;;;;;;;14.06;100.00;100046.66;5117979;28;20032;-36
2023/09/22 08:08:10;;;;;;;2.05;1.00;;;;;;;14.07;100.00;100061.88;5117203;28;20349;-36
2023/09/22 08:10:38;;;;;;;4.15;1.08;;;;;;;14.09;100.00;100062.41;5117098;28;20020;-36
2023/09/22 08:13:06;;;;;;;1.42;0.75;;;;;;;14.06;100.00;100054.81;5117587;28;20070;-35
2023/09/22 08:15:32;;;;;;;1.92;0.90;;;;;;;14.22;100.00;100063.75;5116959;28;20020;-35
2023/09/22 08:17:58;;;;;;;2.63;1.00;;;;;;;14.35;100.00;100063.22;5117529;28;20027;-35
2023/09/22 08:20:23;;;;;;;;;;;;;;;14.50;100.00;100069.75;5118171;28;20031;-36
2023/09/22 08:22:48;;;;;;;1.70;0.90;;;;;;;14.55;100.00;100070.53;5116711;28;20236;-35
2023/09/22 08:25:14;;;;;;;1.67;0.70;;;;;;;14.53;100.00;100059.09;5117423;28;20589;-36
2023/09/22 08:27:40;;;;;;;1.77;0.85;;;;;;;14.53;100.00;100069.97;5116819;28;20597;-35
2023/09/22 08:30:11;;;;;;;3.63;0.90;;;;;;;14.58;100.00;100075.41;5115940;28;20031;-36
2023/09/22 08:32:42;;;;;;;2.88;0.80;;;;;;;14.61;100.00;100080.31;5116996;28;20043;-35
2023/09/22 08:35:08;;;;;;;1.38;0.70;;;;;;;14.35;100.00;100046.88;5116992;28;20024;-35
2023/09/22 08:37:36;;;;;;;2.55;0.80;;;;;;;14.58;100.00;100080.84;5116598;28;20508;-35
2023/09/22 08:40:07;;;;;;;3.58;0.98;;;;;;;14.63;100.00;100086.28;5116764;28;20459;-35
2023/09/22 08:42:33;;;;;;;1.05;0.60;;;;;;;14.60;100.00;100078.69;5117082;28;20107;-36
2023/09/22 08:44:59;;;;;;;2.20;0.82;;;;;;;14.57;100.00;100081.13;5116441;28;20110;-36
2023/09/22 08:47:24;;;;;;;;;;;;;;;14.65;100.00;100078.66;5116832;28;20073;-36
2023/09/22 08:49:50;;;;;;;1.03;0.57;;;;;;;14.48;100.00;100080.88;5116639;28;19903;-36
2023/09/22 08:52:15;;;;;;;2.85;0.65;;;;;;;14.36;100.00;100078.44;5116289;28;20297;-36
2023/09/22 08:54:40;;;;;;;;;;;;;;;14.45;100.00;100083.31;5116692;28;20024;-36
2023/09/22 08:57:06;;;;;;;3.47;0.80;;;;;;;14.30;100.00;100084.13;5115683;28;19910;-36
2023/09/22 08:59:31;;;;;;;2.50;0.80;;;;;;;14.20;100.00;100089.59;5115901;28;20253;-36
2023/09/22 09:01:57;;;;;;;;;;;;;;;14.24;100.00;100096.13;5116791;28;20099;-37
2023/09/22 09:04:34;;;;;;;3.30;0.60;;;;;;;14.01;100.00;100092.88;5116049;28;19946;-36
2023/09/22 09:07:02;;;;;;;2.70;0.63;;;;;;;14.03;100.00;100101.56;5116080;28;20016;-37
2023/09/22 09:09:40;;;;;;;3.28;0.80;;;;;;;14.17;100.00;100093.69;5115893;27;20097;-35
2023/09/22 09:12:08;;;;;;;4.68;0.90;;;;;;;14.19;100.00;100088.78;5115558;28;20034;-35
2023/09/22 09:14:34;;;;;;;3.05;0.70;;;;;;;14.34;100.00;100102.34;5115818;28;20051;-35
2023/09/22 09:16:59;;;;;;;1.65;0.70;;;;;;;14.53;100.00;100104.53;5116099;28;20383;-36
2023/09/22 09:19:26;;;;;;;3.00;0.80;;;;;;;14.79;100.00;100116.19;5115737;28;20020;-35
2023/09/22 09:22:05;;;;;;;2.15;0.70;;;;;;;14.99;100.00;100105.25;5116560;28;20054;-36
2023/09/22 09:24:32;;;;;;;2.75;0.70;;;;;;;15.15;100.00;100108.72;5116142;28;20020;-35
2023/09/22 09:26:57;;;;;;;1.63;0.68;;;;;;;15.28;100.00;100099.13;5115619;28;20527;-36
2023/09/22 09:29:29;;;;;;;1.30;0.70;;;;;;;15.49;100.00;100111.53;5116141;28;20095;-36
2023/09/22 09:32:00;;;;;;;2.35;0.80;;;;;;;15.59;100.00;100106.03;5115486;28;20020;-36
2023/09/22 09:34:39;;;;;;;2.08;0.63;;;;;;;15.67;100.00;100110.91;5115128;28;20070;-35
2023/09/22 09:37:12;;;;;;;5.30;1.30;;;;;;;15.51;100.00;100103.06;5115406;28;20047;-36
2023/09/22 09:40:03;;;;;;;1.15;0.45;;;;;;;15.41;100.00;100112.91;5115330;27;20026;-36
2023/09/22 09:42:31;;;;;;;1.80;0.70;;;;;;;15.22;100.00;100119.28;5114493;28;20015;-36
2023/09/22 09:44:57;;;;;;;2.63;0.95;;;;;;;15.11;100.00;100113.88;5115225;28;20030;-35
2023/09/22 09:47:24;;;;;;;2.33;0.90;;;;;;;15.26;100.00;100115.72;5116034;28;20106;-36
2023/09/22 09:49:55;;;;;;;1.13;0.55;;;;;;;15.51;100.00;100116.69;5114832;28;20518;-36
2023/09/22 09:52:37;;;;;;;1.98;0.57;;;;;;;15.71;100.00;100102.97;5115409;27;20123;-36
2023/09/22 09:55:12;;;;;;;1.20;0.60;;;;;;;15.93;100.00;100116.19;5114782;28;20084;-36
2023/09/22 09:57:45;;;;;;;20.95;1.65;;;;;;;16.03;100.00;100118.03;5115226;28;20387;-36
2023/09/22 10:00:19;;;;;;;1.88;0.65;;;;;;;15.94;100.00;100112.34;5115329;28;20084;-36
2023/09/22 10:02:45;;;;;;;2.72;0.98;;;;;;;15.91;100.00;100111.03;5115475;28;20020;-36
2023/09/22 10:05:15;;;;;;;2.15;0.57;;;;;;;16.15;100.00;100122.03;5115452;28;20023;-36
2023/09/22 10:07:43;;;;;;;1.73;0.60;;;;;;;16.30;100.00;100122.97;5114810;28;20451;-36
2023/09/22 10:10:10;;;;;;;2.40;0.60;;;;;;;16.44;100.00;100115.75;5115565;28;20024;-36
2023/09/22 10:12:36;;;;;;;1.92;0.60;;;;;;;16.58;100.00;100113.97;5114710;28;20019;-36
2023/09/22 10:15:04;;;;;;;;;;;;;;;16.79;100.00;100105.59;5115151;28;20020;-36
2023/09/22 10:17:31;;;;;;;1.35;0.50;;;;;;;16.81;100.00;100100.66;5115187;28;20006;-36
2023/09/22 10:19:59;;;;;;;1.60;0.65;;;;;;;16.76;100.00;100092.53;5114968;28;20023;-36
2023/09/22 10:22:24;;;;;;;2.08;0.70;;;;;;;16.88;100.00;100099.19;5115453;28;20363;-36
2023/09/22 10:25:09;;;;;;;;;;;;;;;17.13;100.00;100098.09;5115226;28;20019;-36
2023/09/22 10:27:50;;;;;;;1.05;0.57;;;;;;;17.14;100.00;100093.44;5115273;28;19903;-36
2023/09/22 10:30:16;;;;;;;1.35;0.70;;;;;;;17.18;100.00;100099.97;5115021;28;20023;-36
2023/09/22 10:32:42;;;;;;;;;;;;;;;17.33;100.00;100107.13;5114905;28;20523;-36
2023/09/22 10:35:12;;;;;;;1.23;0.50;;;;;;;17.19;100.00;100093.38;5114084;28;19948;-36
2023/09/22 10:37:56;;;;;;;1.98;0.68;;;;;;;17.29;100.00;100100.63;5114016;28;20459;-37
2023/09/22 10:40:22;;;;;;;2.70;0.60;;;;;;;17.35;100.00;100097.53;5114938;28;20542;-36
2023/09/22 10:42:50;;;;;;;2.88;0.68;;;;;;;17.36;100.00;100104.59;5114262;28;20465;-36
2023/09/22 10:45:18;;;;;;;1.25;0.50;;;;;;;17.40;99.93;100097.44;5113956;28;20023;-36
2023/09/22 10:47:45;;;;;;;1.20;0.55;;;;;;;17.46;98.42;100093.53;5114507;28;20474;-36
2023/09/22 10:50:30;;;;;;;1.85;0.73;;;;;;;17.43;100.00;100102.34;5114390;28;20456;-36
2023/09/22 10:53:04;;;;;;;1.50;0.50;;;;;;;17.38;100.00;100087.94;5114034;28;20023;-36
2023/09/22 10:55:41;;;;;;;1.23;0.52;;;;;;;17.21;98.26;100094.69;5114184;28;20028;-36
2023/09/22 10:58:09;;;;;;;1.17;0.65;;;;;;;17.06;96.50;100096.81;5114974;28;20051;-36
2023/09/22 11:00:37;;;;;;;2.85;0.73;;;;;;;16.98;96.27;100090.91;5113773;28;20019;-36
2023/09/22 11:03:08;;;;;;;2.15;0.82;;;;;;;17.10;97.95;100098.69;5114031;28;20020;-35
2023/09/22 11:05:35;;;;;;;1.05;0.50;;;;;;;16.96;98.88;100098.56;5113997;28;20049;-36
2023/09/22 11:08:01;;;;;;;1.67;0.70;;;;;;;17.10;98.70;100095.94;5114313;28;20038;-36
2023/09/22 11:10:27;;;;;;;2.15;0.60;;;;;;;17.22;99.03;100092.78;5113652;28;20375;-36
2023/09/22 11:12:54;;;;;;;;;;;;;;;17.37;99.38;100098.06;5114711;28;20052;-41
2023/09/22 11:15:20;;;;;;;1.05;0.57;;;;;;;17.18;99.69;100102.69;5113952;28;19930;-36
2023/09/22 11:17:47;;;;;;;1.77;0.70;;;;;;;17.11;96.11;100096.75;5114104;28;20065;-36
2023/09/22 11:20:26;;;;;;;2.75;0.85;;;;;;;17.04;97.39;100105.31;5113557;28;20520;-36
2023/09/22 11:22:52;;;;;;;2.15;0.88;;;;;;;17.04;99.02;100104.50;5113942;28;20027;-36
2023/09/22 11:25:18;;;;;;;1.65;0.65;;;;;;;17.16;97.71;100113.88;5113763;28;20464;-36